sensor_id;sensor_type;location;lat;lon;timestamp;temperature;humidity
54540;SHT30;40438;52.992;18.604;2023-06-22T00:00:29;21.47;79.70
54540;SHT30;40438;52.992;18.604;2023-06-22T00:02:55;21.42;79.90
54540;SHT30;40438;52.992;18.604;2023-06-22T00:05:20;21.44;79.96
54540;SHT30;40438;52.992;18.604;2023-06-22T00:07:48;21.35;80.10
54540;SHT30;40438;52.992;18.604;2023-06-22T00:10:14;21.31;80.24
54540;SHT30;40438;52.992;18.604;2023-06-22T00:12:39;21.32;80.02
54540;SHT30;40438;52.992;18.604;2023-06-22T00:15:06;21.31;80.07
54540;SHT30;40438;52.992;18.604;2023-06-22T00:17:31;21.32;79.98
54540;SHT30;40438;52.992;18.604;2023-06-22T00:19:57;21.30;80.16
54540;SHT30;40438;52.992;18.604;2023-06-22T00:22:23;21.26;80.18
54540;SHT30;40438;52.992;18.604;2023-06-22T00:24:50;21.26;80.23
54540;SHT30;40438;52.992;18.604;2023-06-22T00:27:16;21.26;79.95
54540;SHT30;40438;52.992;18.604;2023-06-22T00:29:42;21.24;79.89
54540;SHT30;40438;52.992;18.604;2023-06-22T00:32:08;21.21;79.84
54540;SHT30;40438;52.992;18.604;2023-06-22T00:34:33;21.24;79.71
54540;SHT30;40438;52.992;18.604;2023-06-22T00:36:59;21.20;79.65
54540;SHT30;40438;52.992;18.604;2023-06-22T00:39:25;21.21;79.63
54540;SHT30;40438;52.992;18.604;2023-06-22T00:41:52;21.20;79.52
54540;SHT30;40438;52.992;18.604;2023-06-22T00:44:18;21.27;79.38
54540;SHT30;40438;52.992;18.604;2023-06-22T00:46:44;21.22;79.44
54540;SHT30;40438;52.992;18.604;2023-06-22T00:49:09;21.24;79.20
54540;SHT30;40438;52.992;18.604;2023-06-22T00:51:36;21.22;79.13
54540;SHT30;40438;52.992;18.604;2023-06-22T00:54:02;21.21;79.02
54540;SHT30;40438;52.992;18.604;2023-06-22T00:56:27;21.21;78.95
54540;SHT30;40438;52.992;18.604;2023-06-22T00:58:55;21.17;79.11
54540;SHT30;40438;52.992;18.604;2023-06-22T01:01:20;21.18;79.21
54540;SHT30;40438;52.992;18.604;2023-06-22T01:03:48;21.13;79.31
54540;SHT30;40438;52.992;18.604;2023-06-22T01:06:18;21.14;79.46
54540;SHT30;40438;52.992;18.604;2023-06-22T01:08:50;21.11;79.54
54540;SHT30;40438;52.992;18.604;2023-06-22T01:11:21;21.07;79.76
54540;SHT30;40438;52.992;18.604;2023-06-22T01:13:57;21.04;79.89
54540;SHT30;40438;52.992;18.604;2023-06-22T01:16:28;21.00;79.96
54540;SHT30;40438;52.992;18.604;2023-06-22T01:19:00;20.94;80.16
54540;SHT30;40438;52.992;18.604;2023-06-22T01:21:29;20.93;80.18
54540;SHT30;40438;52.992;18.604;2023-06-22T01:24:07;20.89;80.34
54540;SHT30;40438;52.992;18.604;2023-06-22T01:26:38;20.89;80.27
54540;SHT30;40438;52.992;18.604;2023-06-22T01:29:11;20.84;80.43
54540;SHT30;40438;52.992;18.604;2023-06-22T01:31:37;20.86;80.28
54540;SHT30;40438;52.992;18.604;2023-06-22T01:34:05;20.83;80.19
54540;SHT30;40438;52.992;18.604;2023-06-22T01:36:32;20.80;80.33
54540;SHT30;40438;52.992;18.604;2023-06-22T01:38:59;20.80;80.36
54540;SHT30;40438;52.992;18.604;2023-06-22T01:41:26;20.76;80.10
54540;SHT30;40438;52.992;18.604;2023-06-22T01:43:54;20.73;80.12
54540;SHT30;40438;52.992;18.604;2023-06-22T01:46:22;20.69;79.96
54540;SHT30;40438;52.992;18.604;2023-06-22T01:48:49;20.72;79.91
54540;SHT30;40438;52.992;18.604;2023-06-22T01:51:16;20.72;79.70
54540;SHT30;40438;52.992;18.604;2023-06-22T01:53:41;20.72;79.64
54540;SHT30;40438;52.992;18.604;2023-06-22T01:56:07;20.66;79.58
54540;SHT30;40438;52.992;18.604;2023-06-22T01:58:37;20.64;79.54
54540;SHT30;40438;52.992;18.604;2023-06-22T02:01:09;20.62;79.53
54540;SHT30;40438;52.992;18.604;2023-06-22T02:03:41;20.60;79.44
54540;SHT30;40438;52.992;18.604;2023-06-22T02:06:10;20.62;79.31
54540;SHT30;40438;52.992;18.604;2023-06-22T02:08:40;20.60;79.33
54540;SHT30;40438;52.992;18.604;2023-06-22T02:11:08;20.57;79.19
54540;SHT30;40438;52.992;18.604;2023-06-22T02:13:36;20.55;79.17
54540;SHT30;40438;52.992;18.604;2023-06-22T02:16:02;20.55;79.23
54540;SHT30;40438;52.992;18.604;2023-06-22T02:18:28;20.49;79.35
54540;SHT30;40438;52.992;18.604;2023-06-22T02:20:56;20.48;79.29
54540;SHT30;40438;52.992;18.604;2023-06-22T02:23:22;20.46;79.26
54540;SHT30;40438;52.992;18.604;2023-06-22T02:25:48;20.42;79.38
54540;SHT30;40438;52.992;18.604;2023-06-22T02:28:13;20.41;79.54
54540;SHT30;40438;52.992;18.604;2023-06-22T02:30:39;20.39;79.61
54540;SHT30;40438;52.992;18.604;2023-06-22T02:33:06;20.35;79.60
54540;SHT30;40438;52.992;18.604;2023-06-22T02:35:32;20.39;79.55
54540;SHT30;40438;52.992;18.604;2023-06-22T02:38:00;20.38;79.47
54540;SHT30;40438;52.992;18.604;2023-06-22T02:40:26;20.33;79.66
54540;SHT30;40438;52.992;18.604;2023-06-22T02:42:52;20.28;79.44
54540;SHT30;40438;52.992;18.604;2023-06-22T02:45:18;20.26;79.47
54540;SHT30;40438;52.992;18.604;2023-06-22T02:47:44;20.21;79.73
54540;SHT30;40438;52.992;18.604;2023-06-22T02:50:10;20.21;79.62
54540;SHT30;40438;52.992;18.604;2023-06-22T02:52:37;20.18;79.73
54540;SHT30;40438;52.992;18.604;2023-06-22T02:55:06;20.15;79.57
54540;SHT30;40438;52.992;18.604;2023-06-22T02:57:32;20.17;79.54
54540;SHT30;40438;52.992;18.604;2023-06-22T02:59:58;20.15;79.48
54540;SHT30;40438;52.992;18.604;2023-06-22T03:02:23;20.14;79.12
54540;SHT30;40438;52.992;18.604;2023-06-22T03:04:49;20.14;79.08
54540;SHT30;40438;52.992;18.604;2023-06-22T03:07:15;20.12;78.95
54540;SHT30;40438;52.992;18.604;2023-06-22T03:09:41;20.10;78.97
54540;SHT30;40438;52.992;18.604;2023-06-22T03:12:09;20.11;78.71
54540;SHT30;40438;52.992;18.604;2023-06-22T03:14:48;20.11;78.52
54540;SHT30;40438;52.992;18.604;2023-06-22T03:17:14;20.14;78.38
54540;SHT30;40438;52.992;18.604;2023-06-22T03:19:40;20.15;77.95
54540;SHT30;40438;52.992;18.604;2023-06-22T03:22:06;20.14;77.96
54540;SHT30;40438;52.992;18.604;2023-06-22T03:24:32;20.15;77.82
54540;SHT30;40438;52.992;18.604;2023-06-22T03:26:58;20.17;77.91
54540;SHT30;40438;52.992;18.604;2023-06-22T03:29:25;20.17;77.79
54540;SHT30;40438;52.992;18.604;2023-06-22T03:31:52;20.22;77.46
54540;SHT30;40438;52.992;18.604;2023-06-22T03:34:18;20.22;77.30
54540;SHT30;40438;52.992;18.604;2023-06-22T03:36:43;20.20;77.38
54540;SHT30;40438;52.992;18.604;2023-06-22T03:39:09;20.18;77.65
54540;SHT30;40438;52.992;18.604;2023-06-22T03:41:35;20.15;77.80
54540;SHT30;40438;52.992;18.604;2023-06-22T03:44:01;20.15;77.68
54540;SHT30;40438;52.992;18.604;2023-06-22T03:46:28;20.20;77.02
54540;SHT30;40438;52.992;18.604;2023-06-22T03:48:54;20.21;76.51
54540;SHT30;40438;52.992;18.604;2023-06-22T03:51:20;20.24;76.48
54540;SHT30;40438;52.992;18.604;2023-06-22T03:53:46;20.25;76.55
54540;SHT30;40438;52.992;18.604;2023-06-22T03:56:11;20.24;76.32
54540;SHT30;40438;52.992;18.604;2023-06-22T03:58:37;20.26;76.11
54540;SHT30;40438;52.992;18.604;2023-06-22T04:01:03;20.25;75.92
54540;SHT30;40438;52.992;18.604;2023-06-22T04:03:30;20.22;75.95
54540;SHT30;40438;52.992;18.604;2023-06-22T04:05:56;20.21;76.09
54540;SHT30;40438;52.992;18.604;2023-06-22T04:08:22;20.26;76.02
54540;SHT30;40438;52.992;18.604;2023-06-22T04:10:47;20.32;76.03
54540;SHT30;40438;52.992;18.604;2023-06-22T04:13:13;20.33;75.94
54540;SHT30;40438;52.992;18.604;2023-06-22T04:15:39;20.35;75.92
54540;SHT30;40438;52.992;18.604;2023-06-22T04:18:05;20.41;75.93
54540;SHT30;40438;52.992;18.604;2023-06-22T04:20:32;20.41;75.46
54540;SHT30;40438;52.992;18.604;2023-06-22T04:22:58;20.36;75.64
54540;SHT30;40438;52.992;18.604;2023-06-22T04:25:24;20.36;75.49
54540;SHT30;40438;52.992;18.604;2023-06-22T04:27:49;20.38;75.63
54540;SHT30;40438;52.992;18.604;2023-06-22T04:30:15;20.38;75.53
54540;SHT30;40438;52.992;18.604;2023-06-22T04:32:41;20.41;75.66
54540;SHT30;40438;52.992;18.604;2023-06-22T04:35:07;20.39;75.80
54540;SHT30;40438;52.992;18.604;2023-06-22T04:37:35;20.38;75.77
54540;SHT30;40438;52.992;18.604;2023-06-22T04:40:00;20.38;75.68
54540;SHT30;40438;52.992;18.604;2023-06-22T04:42:26;20.39;75.44
54540;SHT30;40438;52.992;18.604;2023-06-22T04:44:52;20.38;75.50
54540;SHT30;40438;52.992;18.604;2023-06-22T04:47:18;20.39;75.60
54540;SHT30;40438;52.992;18.604;2023-06-22T04:49:44;20.39;75.62
54540;SHT30;40438;52.992;18.604;2023-06-22T04:52:12;20.48;75.43
54540;SHT30;40438;52.992;18.604;2023-06-22T04:54:40;20.43;75.59
54540;SHT30;40438;52.992;18.604;2023-06-22T04:57:07;20.46;75.41
54540;SHT30;40438;52.992;18.604;2023-06-22T04:59:33;20.53;74.97
54540;SHT30;40438;52.992;18.604;2023-06-22T05:02:00;20.52;74.81
54540;SHT30;40438;52.992;18.604;2023-06-22T05:04:26;20.55;75.05
54540;SHT30;40438;52.992;18.604;2023-06-22T05:06:53;20.64;74.63
54540;SHT30;40438;52.992;18.604;2023-06-22T05:09:19;20.64;74.28
54540;SHT30;40438;52.992;18.604;2023-06-22T05:11:47;20.68;74.17
54540;SHT30;40438;52.992;18.604;2023-06-22T05:14:13;20.69;74.27
54540;SHT30;40438;52.992;18.604;2023-06-22T05:16:40;20.73;74.39
54540;SHT30;40438;52.992;18.604;2023-06-22T05:19:06;20.75;74.39
54540;SHT30;40438;52.992;18.604;2023-06-22T05:21:32;20.84;74.34
54540;SHT30;40438;52.992;18.604;2023-06-22T05:23:58;20.87;74.11
54540;SHT30;40438;52.992;18.604;2023-06-22T05:26:24;20.93;74.04
54540;SHT30;40438;52.992;18.604;2023-06-22T05:28:51;20.93;73.71
54540;SHT30;40438;52.992;18.604;2023-06-22T05:31:17;20.99;73.62
54540;SHT30;40438;52.992;18.604;2023-06-22T05:33:43;21.04;73.55
54540;SHT30;40438;52.992;18.604;2023-06-22T05:36:09;21.04;73.75
54540;SHT30;40438;52.992;18.604;2023-06-22T05:38:35;21.11;73.86
54540;SHT30;40438;52.992;18.604;2023-06-22T05:41:01;21.11;73.42
54540;SHT30;40438;52.992;18.604;2023-06-22T05:43:27;21.17;72.93
54540;SHT30;40438;52.992;18.604;2023-06-22T05:45:54;21.20;72.80
54540;SHT30;40438;52.992;18.604;2023-06-22T05:48:20;21.21;73.03
54540;SHT30;40438;52.992;18.604;2023-06-22T05:50:46;21.27;73.24
54540;SHT30;40438;52.992;18.604;2023-06-22T05:53:11;21.30;73.32
54540;SHT30;40438;52.992;18.604;2023-06-22T05:55:37;21.35;73.05
54540;SHT30;40438;52.992;18.604;2023-06-22T05:58:03;21.44;72.85
54540;SHT30;40438;52.992;18.604;2023-06-22T06:00:29;21.54;72.91
54540;SHT30;40438;52.992;18.604;2023-06-22T06:02:56;21.61;72.77
54540;SHT30;40438;52.992;18.604;2023-06-22T06:05:22;21.66;72.46
54540;SHT30;40438;52.992;18.604;2023-06-22T06:07:48;21.73;71.99
54540;SHT30;40438;52.992;18.604;2023-06-22T06:10:13;21.80;71.50
54540;SHT30;40438;52.992;18.604;2023-06-22T06:12:39;21.75;71.71
54540;SHT30;40438;52.992;18.604;2023-06-22T06:15:05;21.85;71.49
54540;SHT30;40438;52.992;18.604;2023-06-22T06:17:31;21.89;71.49
54540;SHT30;40438;52.992;18.604;2023-06-22T06:20:00;21.96;71.68
54540;SHT30;40438;52.992;18.604;2023-06-22T06:22:26;22.03;71.09
54540;SHT30;40438;52.992;18.604;2023-06-22T06:24:52;22.10;70.24
54540;SHT30;40438;52.992;18.604;2023-06-22T06:27:17;22.19;70.17
54540;SHT30;40438;52.992;18.604;2023-06-22T06:29:43;22.21;69.88
54540;SHT30;40438;52.992;18.604;2023-06-22T06:32:09;22.30;69.77
54540;SHT30;40438;52.992;18.604;2023-06-22T06:34:35;22.36;68.94
54540;SHT30;40438;52.992;18.604;2023-06-22T06:37:03;22.41;68.59
54540;SHT30;40438;52.992;18.604;2023-06-22T06:39:29;22.45;68.82
54540;SHT30;40438;52.992;18.604;2023-06-22T06:41:54;22.47;68.72
54540;SHT30;40438;52.992;18.604;2023-06-22T06:44:20;22.54;68.36
54540;SHT30;40438;52.992;18.604;2023-06-22T06:46:46;22.58;67.93
54540;SHT30;40438;52.992;18.604;2023-06-22T06:49:12;22.60;68.08
54540;SHT30;40438;52.992;18.604;2023-06-22T06:51:38;22.58;68.27
54540;SHT30;40438;52.992;18.604;2023-06-22T06:54:05;22.64;68.03
54540;SHT30;40438;52.992;18.604;2023-06-22T06:56:30;22.71;67.88
54540;SHT30;40438;52.992;18.604;2023-06-22T06:58:56;22.78;67.55
54540;SHT30;40438;52.992;18.604;2023-06-22T07:01:22;22.82;67.37
54540;SHT30;40438;52.992;18.604;2023-06-22T07:03:48;22.89;67.06
54540;SHT30;40438;52.992;18.604;2023-06-22T07:06:13;22.94;66.83
54540;SHT30;40438;52.992;18.604;2023-06-22T07:08:39;22.98;67.07
54540;SHT30;40438;52.992;18.604;2023-06-22T07:11:06;23.00;66.83
54540;SHT30;40438;52.992;18.604;2023-06-22T07:13:32;23.03;66.82
54540;SHT30;40438;52.992;18.604;2023-06-22T07:15:58;23.09;66.85
54540;SHT30;40438;52.992;18.604;2023-06-22T07:18:24;23.14;66.73
54540;SHT30;40438;52.992;18.604;2023-06-22T07:20:49;23.23;66.78
54540;SHT30;40438;52.992;18.604;2023-06-22T07:23:17;23.26;66.26
54540;SHT30;40438;52.992;18.604;2023-06-22T07:25:42;23.35;65.68
54540;SHT30;40438;52.992;18.604;2023-06-22T07:28:10;23.37;65.85
54540;SHT30;40438;52.992;18.604;2023-06-22T07:30:35;23.43;65.32
54540;SHT30;40438;52.992;18.604;2023-06-22T07:33:01;23.46;65.09
54540;SHT30;40438;52.992;18.604;2023-06-22T07:35:27;23.43;64.93
54540;SHT30;40438;52.992;18.604;2023-06-22T07:37:53;23.43;64.92
54540;SHT30;40438;52.992;18.604;2023-06-22T07:40:19;23.46;65.07
54540;SHT30;40438;52.992;18.604;2023-06-22T07:42:44;23.53;65.01
54540;SHT30;40438;52.992;18.604;2023-06-22T07:45:11;23.57;63.98
54540;SHT30;40438;52.992;18.604;2023-06-22T07:47:37;23.61;63.96
54540;SHT30;40438;52.992;18.604;2023-06-22T07:50:03;23.63;63.97
54540;SHT30;40438;52.992;18.604;2023-06-22T07:52:30;23.64;63.26
54540;SHT30;40438;52.992;18.604;2023-06-22T07:54:56;23.66;61.55
54540;SHT30;40438;52.992;18.604;2023-06-22T07:57:21;23.63;60.35
54540;SHT30;40438;52.992;18.604;2023-06-22T07:59:47;23.77;60.86
54540;SHT30;40438;52.992;18.604;2023-06-22T08:02:14;23.85;59.64
54540;SHT30;40438;52.992;18.604;2023-06-22T08:04:41;23.91;59.53
54540;SHT30;40438;52.992;18.604;2023-06-22T08:07:07;23.95;60.74
54540;SHT30;40438;52.992;18.604;2023-06-22T08:09:33;24.02;60.77
54540;SHT30;40438;52.992;18.604;2023-06-22T08:11:59;24.15;59.42
54540;SHT30;40438;52.992;18.604;2023-06-22T08:14:25;24.16;58.59
54540;SHT30;40438;52.992;18.604;2023-06-22T08:16:51;24.24;58.27
54540;SHT30;40438;52.992;18.604;2023-06-22T08:19:19;24.28;58.36
54540;SHT30;40438;52.992;18.604;2023-06-22T08:21:44;24.39;57.33
54540;SHT30;40438;52.992;18.604;2023-06-22T08:24:10;24.43;56.74
54540;SHT30;40438;52.992;18.604;2023-06-22T08:26:36;24.52;56.20
54540;SHT30;40438;52.992;18.604;2023-06-22T08:29:02;24.56;56.00
54540;SHT30;40438;52.992;18.604;2023-06-22T08:31:28;24.48;55.93
54540;SHT30;40438;52.992;18.604;2023-06-22T08:33:53;24.56;54.72
54540;SHT30;40438;52.992;18.604;2023-06-22T08:36:21;24.57;55.58
54540;SHT30;40438;52.992;18.604;2023-06-22T08:38:46;24.62;56.44
54540;SHT30;40438;52.992;18.604;2023-06-22T08:41:12;24.73;55.78
54540;SHT30;40438;52.992;18.604;2023-06-22T08:43:38;24.76;54.49
54540;SHT30;40438;52.992;18.604;2023-06-22T08:46:04;24.80;53.35
54540;SHT30;40438;52.992;18.604;2023-06-22T08:48:29;24.93;52.51
54540;SHT30;40438;52.992;18.604;2023-06-22T08:50:55;24.74;53.30
54540;SHT30;40438;52.992;18.604;2023-06-22T08:53:22;24.73;53.99
54540;SHT30;40438;52.992;18.604;2023-06-22T08:55:48;24.77;54.00
54540;SHT30;40438;52.992;18.604;2023-06-22T08:58:14;24.84;52.51
54540;SHT30;40438;52.992;18.604;2023-06-22T09:00:39;24.84;52.88
54540;SHT30;40438;52.992;18.604;2023-06-22T09:03:05;24.93;50.95
54540;SHT30;40438;52.992;18.604;2023-06-22T09:05:31;25.04;51.09
54540;SHT30;40438;52.992;18.604;2023-06-22T09:07:57;25.06;50.97
54540;SHT30;40438;52.992;18.604;2023-06-22T09:10:24;25.13;52.52
54540;SHT30;40438;52.992;18.604;2023-06-22T09:12:50;25.20;52.60
54540;SHT30;40438;52.992;18.604;2023-06-22T09:15:16;25.34;52.70
54540;SHT30;40438;52.992;18.604;2023-06-22T09:17:41;25.45;51.93
54540;SHT30;40438;52.992;18.604;2023-06-22T09:20:08;25.58;48.47
54540;SHT30;40438;52.992;18.604;2023-06-22T09:22:34;25.65;47.93
54540;SHT30;40438;52.992;18.604;2023-06-22T09:25:00;25.69;47.79
54540;SHT30;40438;52.992;18.604;2023-06-22T09:27:27;25.79;47.69
54540;SHT30;40438;52.992;18.604;2023-06-22T09:29:53;25.86;47.31
54540;SHT30;40438;52.992;18.604;2023-06-22T09:32:18;25.85;46.99
54540;SHT30;40438;52.992;18.604;2023-06-22T09:34:44;26.00;47.86
54540;SHT30;40438;52.992;18.604;2023-06-22T09:37:10;26.20;46.19
54540;SHT30;40438;52.992;18.604;2023-06-22T09:39:36;26.26;45.87
54540;SHT30;40438;52.992;18.604;2023-06-22T09:42:02;26.30;45.76
54540;SHT30;40438;52.992;18.604;2023-06-22T09:44:29;26.31;45.52
54540;SHT30;40438;52.992;18.604;2023-06-22T09:46:55;26.44;45.60
54540;SHT30;40438;52.992;18.604;2023-06-22T09:49:20;26.47;46.88
54540;SHT30;40438;52.992;18.604;2023-06-22T09:51:46;26.55;47.41
54540;SHT30;40438;52.992;18.604;2023-06-22T09:54:12;26.68;46.10
54540;SHT30;40438;52.992;18.604;2023-06-22T09:56:38;26.73;45.79
54540;SHT30;40438;52.992;18.604;2023-06-22T09:59:03;26.87;44.59
54540;SHT30;40438;52.992;18.604;2023-06-22T10:01:31;26.96;44.44
54540;SHT30;40438;52.992;18.604;2023-06-22T10:03:56;27.08;43.91
54540;SHT30;40438;52.992;18.604;2023-06-22T10:06:22;27.13;43.90
54540;SHT30;40438;52.992;18.604;2023-06-22T10:08:50;27.26;44.83
54540;SHT30;40438;52.992;18.604;2023-06-22T10:11:15;27.37;44.31
54540;SHT30;40438;52.992;18.604;2023-06-22T10:13:41;27.51;42.92
54540;SHT30;40438;52.992;18.604;2023-06-22T10:16:07;27.58;43.83
54540;SHT30;40438;52.992;18.604;2023-06-22T10:18:34;27.61;43.64
54540;SHT30;40438;52.992;18.604;2023-06-22T10:21:00;27.68;42.74
54540;SHT30;40438;52.992;18.604;2023-06-22T10:23:26;27.84;42.50
54540;SHT30;40438;52.992;18.604;2023-06-22T10:25:51;27.76;43.47
54540;SHT30;40438;52.992;18.604;2023-06-22T10:28:17;27.84;43.24
54540;SHT30;40438;52.992;18.604;2023-06-22T10:30:43;27.89;41.25
54540;SHT30;40438;52.992;18.604;2023-06-22T10:33:09;28.00;42.24
54540;SHT30;40438;52.992;18.604;2023-06-22T10:35:36;28.18;41.94
54540;SHT30;40438;52.992;18.604;2023-06-22T10:38:02;28.29;40.01
54540;SHT30;40438;52.992;18.604;2023-06-22T10:40:28;28.26;39.10
54540;SHT30;40438;52.992;18.604;2023-06-22T10:42:54;28.35;39.62
54540;SHT30;40438;52.992;18.604;2023-06-22T10:45:20;28.47;41.14
54540;SHT30;40438;52.992;18.604;2023-06-22T10:47:46;28.49;39.90
54540;SHT30;40438;52.992;18.604;2023-06-22T10:50:12;28.56;39.46
54540;SHT30;40438;52.992;18.604;2023-06-22T10:52:39;28.62;39.66
54540;SHT30;40438;52.992;18.604;2023-06-22T10:55:05;28.69;40.23
54540;SHT30;40438;52.992;18.604;2023-06-22T10:57:31;28.83;40.76
54540;SHT30;40438;52.992;18.604;2023-06-22T10:59:57;28.98;39.79
54540;SHT30;40438;52.992;18.604;2023-06-22T11:02:23;29.07;39.09
54540;SHT30;40438;52.992;18.604;2023-06-22T11:04:49;29.24;38.92
54540;SHT30;40438;52.992;18.604;2023-06-22T11:07:15;29.25;38.89
54540;SHT30;40438;52.992;18.604;2023-06-22T11:09:42;29.34;38.82
54540;SHT30;40438;52.992;18.604;2023-06-22T11:12:08;29.45;37.44
54540;SHT30;40438;52.992;18.604;2023-06-22T11:14:34;29.61;38.53
54540;SHT30;40438;52.992;18.604;2023-06-22T11:17:00;29.66;37.94
54540;SHT30;40438;52.992;18.604;2023-06-22T11:19:26;29.66;37.72
54540;SHT30;40438;52.992;18.604;2023-06-22T11:21:52;29.77;37.91
54540;SHT30;40438;52.992;18.604;2023-06-22T11:24:17;29.90;37.91
54540;SHT30;40438;52.992;18.604;2023-06-22T11:26:44;29.97;36.90
54540;SHT30;40438;52.992;18.604;2023-06-22T11:29:10;30.07;35.15
54540;SHT30;40438;52.992;18.604;2023-06-22T11:31:36;30.14;35.84
54540;SHT30;40438;52.992;18.604;2023-06-22T11:34:02;30.30;35.44
54540;SHT30;40438;52.992;18.604;2023-06-22T11:36:29;30.44;36.18
54540;SHT30;40438;52.992;18.604;2023-06-22T11:38:54;30.60;36.18
54540;SHT30;40438;52.992;18.604;2023-06-22T11:41:20;30.72;35.97
54540;SHT30;40438;52.992;18.604;2023-06-22T11:43:47;30.98;36.24
54540;SHT30;40438;52.992;18.604;2023-06-22T11:46:13;31.10;35.05
54540;SHT30;40438;52.992;18.604;2023-06-22T11:48:39;31.29;33.98
54540;SHT30;40438;52.992;18.604;2023-06-22T11:51:05;31.30;35.01
54540;SHT30;40438;52.992;18.604;2023-06-22T11:53:30;31.40;35.49
54540;SHT30;40438;52.992;18.604;2023-06-22T11:55:56;31.44;35.05
54540;SHT30;40438;52.992;18.604;2023-06-22T11:58:22;31.47;35.11
54540;SHT30;40438;52.992;18.604;2023-06-22T12:00:49;31.54;35.50
54540;SHT30;40438;52.992;18.604;2023-06-22T12:03:15;31.51;36.56
54540;SHT30;40438;52.992;18.604;2023-06-22T12:05:41;31.49;38.60
54540;SHT30;40438;52.992;18.604;2023-06-22T12:08:07;31.13;38.67
54540;SHT30;40438;52.992;18.604;2023-06-22T12:10:33;30.82;38.82
54540;SHT30;40438;52.992;18.604;2023-06-22T12:12:58;30.57;39.03
54540;SHT30;40438;52.992;18.604;2023-06-22T12:15:24;30.41;39.81
54540;SHT30;40438;52.992;18.604;2023-06-22T12:17:51;30.40;38.43
54540;SHT30;40438;52.992;18.604;2023-06-22T12:20:17;30.44;39.55
54540;SHT30;40438;52.992;18.604;2023-06-22T12:22:43;30.20;39.51
54540;SHT30;40438;52.992;18.604;2023-06-22T12:25:09;30.04;39.74
54540;SHT30;40438;52.992;18.604;2023-06-22T12:27:35;30.00;40.88
54540;SHT30;40438;52.992;18.604;2023-06-22T12:30:02;29.92;40.64
54540;SHT30;40438;52.992;18.604;2023-06-22T12:32:28;29.81;40.07
54540;SHT30;40438;52.992;18.604;2023-06-22T12:34:55;29.90;39.47
54540;SHT30;40438;52.992;18.604;2023-06-22T12:37:21;30.10;37.24
54540;SHT30;40438;52.992;18.604;2023-06-22T12:39:46;30.27;37.87
54540;SHT30;40438;52.992;18.604;2023-06-22T12:42:12;30.37;38.41
54540;SHT30;40438;52.992;18.604;2023-06-22T12:44:38;30.30;39.41
54540;SHT30;40438;52.992;18.604;2023-06-22T12:47:05;30.14;39.61
54540;SHT30;40438;52.992;18.604;2023-06-22T12:49:31;30.04;39.67
54540;SHT30;40438;52.992;18.604;2023-06-22T12:51:58;30.09;39.45
54540;SHT30;40438;52.992;18.604;2023-06-22T12:54:24;30.23;39.83
54540;SHT30;40438;52.992;18.604;2023-06-22T12:56:50;30.17;39.57
54540;SHT30;40438;52.992;18.604;2023-06-22T12:59:15;30.16;39.45
54540;SHT30;40438;52.992;18.604;2023-06-22T13:01:41;30.09;40.18
54540;SHT30;40438;52.992;18.604;2023-06-22T13:04:07;30.06;39.73
54540;SHT30;40438;52.992;18.604;2023-06-22T13:06:33;30.06;39.11
54540;SHT30;40438;52.992;18.604;2023-06-22T13:09:00;30.06;38.88
54540;SHT30;40438;52.992;18.604;2023-06-22T13:11:26;30.38;38.65
54540;SHT30;40438;52.992;18.604;2023-06-22T13:13:51;30.75;37.98
54540;SHT30;40438;52.992;18.604;2023-06-22T13:16:17;30.93;36.56
54540;SHT30;40438;52.992;18.604;2023-06-22T13:18:43;31.02;37.56
54540;SHT30;40438;52.992;18.604;2023-06-22T13:21:09;31.39;36.74
54540;SHT30;40438;52.992;18.604;2023-06-22T13:23:34;31.54;36.94
54540;SHT30;40438;52.992;18.604;2023-06-22T13:26:02;31.68;36.95
54540;SHT30;40438;52.992;18.604;2023-06-22T13:28:27;31.82;36.69
54540;SHT30;40438;52.992;18.604;2023-06-22T13:30:53;31.88;36.51
54540;SHT30;40438;52.992;18.604;2023-06-22T13:33:19;32.15;35.69
54540;SHT30;40438;52.992;18.604;2023-06-22T13:35:45;32.38;35.26
54540;SHT30;40438;52.992;18.604;2023-06-22T13:38:10;32.33;36.98
54540;SHT30;40438;52.992;18.604;2023-06-22T13:40:36;32.46;36.22
54540;SHT30;40438;52.992;18.604;2023-06-22T13:43:04;32.73;35.22
54540;SHT30;40438;52.992;18.604;2023-06-22T13:45:30;32.88;34.34
54540;SHT30;40438;52.992;18.604;2023-06-22T13:47:55;33.06;34.21
54540;SHT30;40438;52.992;18.604;2023-06-22T13:50:21;33.21;34.15
54540;SHT30;40438;52.992;18.604;2023-06-22T13:52:47;33.47;33.83
54540;SHT30;40438;52.992;18.604;2023-06-22T13:55:13;33.48;32.74
54540;SHT30;40438;52.992;18.604;2023-06-22T13:57:38;33.66;32.29
54540;SHT30;40438;52.992;18.604;2023-06-22T14:00:07;33.59;32.15
54540;SHT30;40438;52.992;18.604;2023-06-22T14:02:37;33.58;33.13
54540;SHT30;40438;52.992;18.604;2023-06-22T14:05:03;33.58;33.66
54540;SHT30;40438;52.992;18.604;2023-06-22T14:07:29;33.62;33.46
54540;SHT30;40438;52.992;18.604;2023-06-22T14:09:55;33.47;33.67
54540;SHT30;40438;52.992;18.604;2023-06-22T14:12:20;33.27;33.97
54540;SHT30;40438;52.992;18.604;2023-06-22T14:14:46;33.24;33.45
54540;SHT30;40438;52.992;18.604;2023-06-22T14:17:14;33.15;33.62
54540;SHT30;40438;52.992;18.604;2023-06-22T14:19:39;33.17;33.64
54540;SHT30;40438;52.992;18.604;2023-06-22T14:22:05;33.34;33.66
54540;SHT30;40438;52.992;18.604;2023-06-22T14:24:31;33.55;32.84
54540;SHT30;40438;52.992;18.604;2023-06-22T14:26:57;33.57;32.74
54540;SHT30;40438;52.992;18.604;2023-06-22T14:29:23;33.68;32.58
54540;SHT30;40438;52.992;18.604;2023-06-22T14:31:49;33.82;32.54
54540;SHT30;40438;52.992;18.604;2023-06-22T14:34:16;33.91;32.83
54540;SHT30;40438;52.992;18.604;2023-06-22T14:36:42;33.93;32.18
54540;SHT30;40438;52.992;18.604;2023-06-22T14:39:08;33.88;33.00
54540;SHT30;40438;52.992;18.604;2023-06-22T14:41:34;34.16;32.28
54540;SHT30;40438;52.992;18.604;2023-06-22T14:43:59;33.99;31.80
54540;SHT30;40438;52.992;18.604;2023-06-22T14:46:25;34.12;31.81
54540;SHT30;40438;52.992;18.604;2023-06-22T14:48:51;34.35;31.70
54540;SHT30;40438;52.992;18.604;2023-06-22T14:51:18;34.32;31.53
54540;SHT30;40438;52.992;18.604;2023-06-22T14:53:45;34.35;31.61
54540;SHT30;40438;52.992;18.604;2023-06-22T14:56:11;34.46;31.22
54540;SHT30;40438;52.992;18.604;2023-06-22T14:58:37;34.49;31.37
54540;SHT30;40438;52.992;18.604;2023-06-22T15:01:03;34.44;31.58
54540;SHT30;40438;52.992;18.604;2023-06-22T15:03:30;34.60;31.24
54540;SHT30;40438;52.992;18.604;2023-06-22T15:05:56;34.66;30.47
54540;SHT30;40438;52.992;18.604;2023-06-22T15:08:23;34.54;31.63